Emu Arrow — C6OR4 — position and weather

sailwx.info

Track history (hours):
 
Tides and Currents Weather Stations Pressure Air Temp Water Temp Dewpoint Dewpoint Depression Visibility Wind Speed Wind Dir Waves Ship Positions

Emu Arrow

Last reported at 2014-Dec-22 03:28 UTC. Time now 2014-Dec-22 22:01 UTC.
Position S 34°27' E 150°53'.

Length 200 m; draft 7.3 m.

Type: Cargo ship. MMSI: 309805000.

Date/timePositionNaut miles runAvg speedWind from/ knotsBaromVisibWave heightAir tempDewpointWater temp
2014-Dec-22 03:28S 34°27' E 150°53'86 2.4
2014-Dec-20 15:33S 33°22' E 151°59'1110.8
2014-Dec-20 14:33S 33°13' E 152°08'1110.8
2014-Dec-20 13:33S 33°05' E 152°16'1110.6
2014-Dec-20 12:33S 32°56' E 152°23'1110.9
2014-Dec-20 11:33S 32°47' E 152°31'1111.1
2014-Dec-20 10:33S 32°39' E 152°39'28412.9
2014-Dec-19 12:32S 28°06' E 154°08'1313.4
2014-Dec-19 11:33S 27°53' E 154°09'1413.3
2014-Dec-19 10:29S 27°38' E 154°11'1313.8
2014-Dec-19 09:33S 27°26' E 154°12'1414.1
2014-Dec-19 08:34S 27°12' E 154°13'1414.2
2014-Dec-19 07:34S 26°58' E 154°15'1414.0
2014-Dec-19 06:34S 26°44' E 154°16'1413.5
2014-Dec-19 05:32S 26°30' E 154°17'  
Track history (hours):
 
Tides and Currents Weather Stations Pressure Air Temp Water Temp Dewpoint Dewpoint Depression Visibility Wind Speed Wind Dir Waves Ship Positions

Emu Arrow

Last reported at 2014-Dec-22 03:28 UTC. Time now 2014-Dec-22 22:01 UTC.
Position S 34°27' E 150°53'.

Length 200 m; draft 7.3 m.

Type: Cargo ship. MMSI: 309805000.

Date/timePositionNaut miles runAvg speedWind from/ knotsBaromVisibWave heightAir tempDewpointWater temp
2014-Dec-22 03:28S 34°27' E 150°53'86 2.4
2014-Dec-20 15:33S 33°22' E 151°59'1110.8
2014-Dec-20 14:33S 33°13' E 152°08'1110.8
2014-Dec-20 13:33S 33°05' E 152°16'1110.6
2014-Dec-20 12:33S 32°56' E 152°23'1110.9
2014-Dec-20 11:33S 32°47' E 152°31'1111.1
2014-Dec-20 10:33S 32°39' E 152°39'28412.9
2014-Dec-19 12:32S 28°06' E 154°08'1313.4
2014-Dec-19 11:33S 27°53' E 154°09'1413.3
2014-Dec-19 10:29S 27°38' E 154°11'1313.8
2014-Dec-19 09:33S 27°26' E 154°12'1414.1
2014-Dec-19 08:34S 27°12' E 154°13'1414.2
2014-Dec-19 07:34S 26°58' E 154°15'1414.0
2014-Dec-19 06:34S 26°44' E 154°16'1413.5
2014-Dec-19 05:32S 26°30' E 154°17'  

Dump ship's entire track history